Time;durP1;ratioP1;P1;durP2;ratioP2;P2;SDS_P1;SDS_P2;PMS_P1;PMS_P2;Temp;Humidity;BMP_temperature;BMP_pressure;BME280_temperature;BME280_humidity;BME280_pressure;Samples;Min_cycle;Max_cycle;Signal;HPM_P1;HPM_P2
2022/11/08 08:38:32;;;;;;;2.63;2.42;;;;;;;;;;6017717;23;20951;-81
2022/11/08 09:24:47;;;;;;;3.30;2.97;;;;;;;;;;4941556;28;20105;-81
2022/11/08 09:27:13;;;;;;;3.30;3.00;;;;;;;;;;4976314;28;20485;-82
2022/11/08 12:47:45;;;;;;;2.60;2.08;;;;;;;;;;5986477;23;20695;-91
2022/11/08 20:28:07;;;;;;;8.18;6.40;;;;;;;;;;4962876;28;20059;-89
2022/11/08 20:30:33;;;;;;;7.65;5.65;;;;;;;;;;4942271;28;20035;-82
2022/11/08 20:32:58;;;;;;;7.80;6.03;;;;;;;;;;4977050;28;20106;-87
2022/11/08 20:35:24;;;;;;;7.68;5.90;;;;;;;;;;4978194;28;20110;-83
2022/11/08 20:37:49;;;;;;;7.43;5.43;;;;;;;;;;4960207;28;20458;-80
2022/11/08 20:40:15;;;;;;;8.93;5.53;;;;;;;;;;4976783;28;20501;-82
2022/11/08 20:42:40;;;;;;;7.20;5.78;;;;;;;;;;4976982;28;20030;-81
2022/11/08 20:45:07;;;;;;;8.30;6.60;;;;;;;;;;4965099;28;20077;-80
2022/11/08 20:47:32;;;;;;;9.18;6.10;;;;;;;;;;4965774;28;20026;-82
2022/11/08 20:49:58;;;;;;;8.63;6.50;;;;;;;;;;4966950;28;20031;-82
2022/11/08 20:52:25;;;;;;;8.77;6.30;;;;;;;;;;4966266;28;20035;-84
2022/11/08 20:54:54;;;;;;;8.52;6.25;;;;;;;;;;4967306;28;20023;-83
2022/11/08 20:57:19;;;;;;;8.57;6.85;;;;;;;;;;4967063;28;20478;-81
2022/11/08 20:59:45;;;;;;;11.43;6.50;;;;;;;;;;4966123;28;20038;-82
2022/11/08 21:02:11;;;;;;;9.48;6.25;;;;;;;;;;4966617;28;20019;-82
2022/11/08 21:04:37;;;;;;;7.55;6.25;;;;;;;;;;4966906;28;20082;-83
2022/11/08 21:07:02;;;;;;;8.52;5.65;;;;;;;;;;4965685;28;20155;-84
2022/11/08 21:09:29;;;;;;;10.52;6.35;;;;;;;;;;4966727;28;20094;-82
2022/11/08 21:11:56;;;;;;;7.78;6.05;;;;;;;;;;4966570;28;20020;-81
2022/11/08 21:14:22;;;;;;;9.32;5.95;;;;;;;;;;4965287;28;20034;-82
2022/11/08 21:16:48;;;;;;;7.88;6.10;;;;;;;;;;4966172;28;20027;-81
2022/11/08 21:19:14;;;;;;;9.35;5.45;;;;;;;;;;4976966;28;20482;-80
2022/11/08 21:21:39;;;;;;;7.65;5.85;;;;;;;;;;4976443;28;20031;-85
2022/11/08 21:24:05;;;;;;;7.53;5.45;;;;;;;;;;4976254;28;20382;-84
2022/11/08 21:26:34;;;;;;;9.30;6.50;;;;;;;;;;4959034;28;20050;-81
2022/11/08 21:29:00;;;;;;;8.90;5.80;;;;;;;;;;4976132;28;20030;-81
2022/11/08 21:31:25;;;;;;;8.50;6.35;;;;;;;;;;4976656;28;20500;-79
2022/11/08 21:33:51;;;;;;;9.45;6.82;;;;;;;;;;4975959;28;20033;-83
2022/11/08 21:36:17;;;;;;;8.77;7.07;;;;;;;;;;4976309;28;20049;-81
2022/11/08 21:38:43;;;;;;;10.27;7.35;;;;;;;;;;4975860;28;20029;-82
2022/11/08 21:41:09;;;;;;;11.63;7.55;;;;;;;;;;4975823;28;20031;-82
2022/11/08 21:43:42;;;;;;;9.15;6.95;;;;;;;;;;4976365;28;20023;-82
2022/11/08 21:46:15;;;;;;;7.95;6.63;;;;;;;;;;4976338;28;20059;-84
2022/11/08 21:48:41;;;;;;;7.20;6.13;;;;;;;;;;4975760;28;20027;-85
2022/11/08 21:51:06;;;;;;;10.10;7.55;;;;;;;;;;4976080;28;20023;-82
2022/11/08 21:53:32;;;;;;;7.60;5.93;;;;;;;;;;4974899;28;20082;-83
2022/11/08 21:55:57;;;;;;;7.82;6.10;;;;;;;;;;4976188;28;20101;-81
2022/11/08 21:58:23;;;;;;;10.27;6.82;;;;;;;;;;4975586;28;20038;-81
2022/11/08 22:00:49;;;;;;;8.82;6.57;;;;;;;;;;4958388;28;20023;-82
2022/11/08 22:03:15;;;;;;;9.05;7.00;;;;;;;;;;4975771;28;20106;-81
2022/11/08 22:05:40;;;;;;;10.75;7.15;;;;;;;;;;4975809;28;20031;-81
2022/11/08 22:08:05;;;;;;;9.05;7.05;;;;;;;;;;4975239;28;20062;-80
2022/11/08 22:10:31;;;;;;;11.93;6.90;;;;;;;;;;4975612;28;20019;-80
2022/11/08 22:12:56;;;;;;;8.02;6.32;;;;;;;;;;4975319;28;20030;-81
2022/11/08 22:15:22;;;;;;;7.43;6.57;;;;;;;;;;4975193;28;20461;-82
2022/11/08 22:17:47;;;;;;;10.30;7.35;;;;;;;;;;4975119;28;20051;-83
2022/11/08 22:20:12;;;;;;;10.70;7.47;;;;;;;;;;4975095;28;20026;-82
2022/11/08 22:22:38;;;;;;;9.57;7.40;;;;;;;;;;4975038;28;20501;-82
2022/11/08 22:25:04;;;;;;;7.10;6.20;;;;;;;;;;4975096;28;20370;-82
2022/11/08 22:27:29;;;;;;;8.05;6.57;;;;;;;;;;4975032;28;20047;-81
2022/11/08 22:29:54;;;;;;;8.02;6.20;;;;;;;;;;4975211;28;20481;-83
2022/11/08 22:32:20;;;;;;;8.05;5.90;;;;;;;;;;4974745;28;20103;-81
2022/11/08 22:34:45;;;;;;;6.78;5.60;;;;;;;;;;4974890;28;20034;-83
2022/11/08 22:39:46;;;;;;;10.68;6.72;;;;;;;;;;5993643;23;21193;-83
2022/11/08 22:42:11;;;;;;;7.85;6.22;;;;;;;;;;4957966;28;20501;-82
